createdAt,value
2022-10-21T00:00:18.650Z,98.84
2022-10-21T00:01:18.903Z,98.94
2022-10-21T00:02:18.882Z,98.94
2022-10-21T00:03:18.898Z,98.84
2022-10-21T00:04:18.861Z,99.13
2022-10-21T00:05:18.880Z,99.32
2022-10-21T00:06:18.576Z,99.13
2022-10-21T00:07:18.563Z,99.03
2022-10-21T00:08:18.552Z,99.03
2022-10-21T00:09:18.799Z,99.32
2022-10-21T00:10:18.527Z,99.32
2022-10-21T00:11:18.771Z,98.94
2022-10-21T00:12:18.502Z,99.22
2022-10-21T00:13:18.743Z,99.22
2022-10-21T00:14:18.739Z,99.32
2022-10-21T00:15:18.466Z,99.41
2022-10-21T00:16:18.719Z,99.13
2022-10-21T00:17:18.697Z,99.69
2022-10-21T00:18:18.686Z,99.22
2022-10-21T00:19:18.445Z,99.32
2022-10-21T00:20:18.498Z,98.99
2022-10-21T00:21:18.675Z,98.99
2022-10-21T00:22:18.379Z,99.03
2022-10-21T00:23:18.369Z,98.13
2022-10-21T00:24:18.353Z,99.08
2022-10-21T00:25:18.605Z,98.84
2022-10-21T00:26:19.119Z,98.65
2022-10-21T00:27:19.353Z,99.22
2022-10-21T00:28:19.083Z,99.22
2022-10-21T00:29:19.418Z,99.98
2022-10-21T00:30:19.315Z,99.99
2022-10-21T00:31:19.304Z,99.99
2022-10-21T00:32:19.034Z,99.99
2022-10-21T00:33:19.022Z,99.99
2022-10-21T00:34:19.265Z,99.99
2022-10-21T00:35:19.029Z,99.99
2022-10-21T00:36:18.986Z,99.99
2022-10-21T00:37:19.258Z,99.99
2022-10-21T00:38:19.318Z,99.99
2022-10-21T00:39:19.205Z,99.99
2022-10-21T00:40:19.189Z,99.99
2022-10-21T00:41:19.178Z,99.99
2022-10-21T00:42:19.167Z,99.99
2022-10-21T00:43:18.901Z,99.99
2022-10-21T00:44:19.142Z,99.99
2022-10-21T00:45:18.875Z,99.99
2022-10-21T00:46:19.116Z,99.99
2022-10-21T00:47:19.107Z,99.99
2022-10-21T00:48:19.089Z,99.99
2022-10-21T00:49:19.082Z,99.99
2022-10-21T00:50:19.067Z,99.99
2022-10-21T00:51:19.087Z,99.99
2022-10-21T00:52:18.786Z,99.99
2022-10-21T00:53:19.060Z,99.99
2022-10-21T00:54:18.764Z,99.99
2022-10-21T00:55:18.758Z,99.99
2022-10-21T00:56:19.090Z,99.99
2022-10-21T00:57:18.730Z,99.99
2022-10-21T00:58:18.971Z,99.99
2022-10-21T00:59:18.702Z,99.99
2022-10-21T01:00:18.942Z,99.99
2022-10-21T01:01:22.917Z,99.99
2022-10-21T01:02:18.663Z,99.99
2022-10-21T01:03:18.659Z,99.99
2022-10-21T01:04:18.637Z,99.99
2022-10-21T01:05:18.885Z,99.99
2022-10-21T01:06:18.616Z,99.99
2022-10-21T01:07:18.885Z,99.99
2022-10-21T01:08:18.845Z,99.99
2022-10-21T01:09:19.018Z,99.99
2022-10-21T01:10:18.825Z,99.99
2022-10-21T01:11:18.806Z,99.99
2022-10-21T01:12:18.799Z,99.99
2022-10-21T01:13:18.526Z,99.99
2022-10-21T01:14:18.515Z,99.99
2022-10-21T01:15:18.759Z,99.99
2022-10-21T01:16:18.747Z,99.99
2022-10-21T01:17:45.528Z,99.99
2022-10-21T01:18:18.728Z,99.99
2022-10-21T01:19:18.706Z,99.99
2022-10-21T01:20:18.699Z,99.99
2022-10-21T01:21:18.425Z,99.99
2022-10-21T01:22:18.675Z,99.99
2022-10-21T01:23:18.682Z,99.99
2022-10-21T01:24:18.391Z,99.99
2022-10-21T01:25:18.665Z,99.99
2022-10-21T01:26:18.627Z,99.99
2022-10-21T01:27:18.361Z,99.99
2022-10-21T01:28:18.342Z,99.99
2022-10-21T01:29:18.585Z,99.99
2022-10-21T01:30:18.577Z,99.99
2022-10-21T01:31:18.559Z,99.99
2022-10-21T01:32:18.548Z,99.99
2022-10-21T01:33:18.286Z,99.99
2022-10-21T01:34:18.528Z,99.99
2022-10-21T01:35:18.514Z,99.99
2022-10-21T01:36:18.508Z,99.99
2022-10-21T01:37:18.485Z,99.99
2022-10-21T01:38:18.477Z,99.99
2022-10-21T01:39:18.483Z,99.99
2022-10-21T01:40:18.191Z,99.99
2022-10-21T01:41:18.458Z,99.99
2022-10-21T01:42:18.435Z,99.99
2022-10-21T01:43:18.155Z,99.99
2022-10-21T01:44:18.146Z,99.99
2022-10-21T01:45:18.133Z,99.99
2022-10-21T01:46:18.120Z,99.99
2022-10-21T01:47:18.107Z,99.99
2022-10-21T01:48:18.352Z,99.99
2022-10-21T01:49:18.097Z,99.99
2022-10-21T01:50:18.073Z,99.99
2022-10-21T01:51:18.425Z,99.99
2022-10-21T01:52:18.044Z,99.99
2022-10-21T01:53:18.029Z,99.99
2022-10-21T01:54:18.020Z,99.99
2022-10-21T01:55:18.031Z,99.99
2022-10-21T01:56:17.992Z,99.99
2022-10-21T01:57:18.270Z,99.99
2022-10-21T01:58:18.225Z,99.99
2022-10-21T01:59:17.960Z,99.99
2022-10-21T02:00:18.092Z,99.99
2022-10-21T02:01:18.094Z,99.99
2022-10-21T02:02:17.915Z,99.99
2022-10-21T02:03:18.163Z,99.99
2022-10-21T02:04:18.146Z,99.99
2022-10-21T02:05:18.135Z,99.99
2022-10-21T02:06:18.129Z,99.99
2022-10-21T02:07:17.852Z,99.99
2022-10-21T02:08:18.093Z,99.99
2022-10-21T02:09:18.275Z,99.99
2022-10-21T02:10:18.069Z,99.99
2022-10-21T02:11:18.085Z,99.99
2022-10-21T02:12:18.043Z,99.99
2022-10-21T02:13:18.064Z,99.99
2022-10-21T02:14:18.016Z,99.99
2022-10-21T02:15:17.755Z,99.99
2022-10-21T02:16:17.990Z,99.99
2022-10-21T02:17:17.722Z,99.99
2022-10-21T02:18:17.974Z,99.99
2022-10-21T02:19:17.758Z,99.99
2022-10-21T02:20:17.939Z,99.99
2022-10-21T02:21:17.672Z,99.99
2022-10-21T02:22:17.910Z,99.99
2022-10-21T02:23:17.901Z,99.99
2022-10-21T02:24:17.686Z,99.99
2022-10-21T02:25:17.874Z,99.99
2022-10-21T02:26:17.862Z,99.99
2022-10-21T02:27:17.879Z,99.99
2022-10-21T02:28:17.577Z,99.99
2022-10-21T02:29:17.851Z,99.99
2022-10-21T02:30:17.805Z,99.99
2022-10-21T02:31:17.805Z,99.99
2022-10-21T02:32:17.789Z,99.99
2022-10-21T02:33:17.517Z,99.99
2022-10-21T02:34:17.757Z,99.99
2022-10-21T02:35:17.747Z,99.99
2022-10-21T02:36:17.733Z,99.99
2022-10-21T02:37:17.727Z,99.99
2022-10-21T02:38:17.704Z,99.99
2022-10-21T02:39:17.437Z,99.99
2022-10-21T02:40:17.689Z,99.99
2022-10-21T02:41:17.668Z,99.99
2022-10-21T02:42:17.652Z,99.99
2022-10-21T02:43:17.680Z,99.99
2022-10-21T02:44:17.628Z,99.99
2022-10-21T02:45:17.640Z,99.99
2022-10-21T02:46:17.606Z,99.99
2022-10-21T02:47:17.604Z,99.99
2022-10-21T02:48:17.573Z,99.99
2022-10-21T02:49:17.308Z,99.99
2022-10-21T02:50:17.552Z,99.99
2022-10-21T02:51:17.551Z,99.99
2022-10-21T02:52:17.524Z,99.99
2022-10-21T02:53:17.509Z,99.99
2022-10-21T02:54:17.499Z,99.99
2022-10-21T02:55:17.228Z,99.99
2022-10-21T02:56:17.545Z,99.99
2022-10-21T02:57:17.209Z,99.99
2022-10-21T02:58:17.187Z,99.99
2022-10-21T02:59:17.462Z,99.99
2022-10-21T03:00:17.427Z,99.99
2022-10-21T03:01:17.546Z,99.99
2022-10-21T03:02:17.392Z,99.99
2022-10-21T03:03:17.379Z,99.99
2022-10-21T03:04:17.400Z,99.99
2022-10-21T03:05:17.097Z,99.99
2022-10-21T03:06:17.344Z,99.99
2022-10-21T03:07:17.327Z,99.99
2022-10-21T03:08:17.314Z,99.99
2022-10-21T03:09:17.056Z,99.99
2022-10-21T03:10:17.326Z,99.99
2022-10-21T03:11:17.018Z,99.99
2022-10-21T03:12:17.271Z,99.99
2022-10-21T03:13:17.253Z,99.99
2022-10-21T03:14:16.984Z,99.99
2022-10-21T03:15:16.993Z,99.99
2022-10-21T03:17:19.428Z,99.99
2022-10-21T03:18:16.941Z,99.99
2022-10-21T03:19:17.171Z,99.99
2022-10-21T03:20:16.902Z,99.99
2022-10-21T03:21:16.885Z,99.99
2022-10-21T03:22:17.138Z,99.99
2022-10-21T03:23:16.866Z,99.99
2022-10-21T03:24:28.678Z,99.99
2022-10-21T03:25:16.887Z,99.99
2022-10-21T03:26:17.078Z,99.99
2022-10-21T03:27:17.067Z,99.99
2022-10-21T03:28:17.077Z,99.99
2022-10-21T03:29:17.042Z,99.99
2022-10-21T03:30:17.030Z,99.99
2022-10-21T03:31:16.789Z,99.99
2022-10-21T03:32:16.759Z,99.99
2022-10-21T03:50:34.504Z,99.99
2022-10-21T03:51:34.752Z,99.99
2022-10-21T03:52:34.473Z,99.99
2022-10-21T03:53:45.371Z,99.99
2022-10-21T03:54:34.699Z,99.99
2022-10-21T03:55:34.687Z,99.99
2022-10-21T03:56:34.664Z,99.99
2022-10-21T03:57:34.399Z,99.99
2022-10-21T03:58:34.382Z,99.99
2022-10-21T03:59:34.627Z,99.99
2022-10-21T04:00:34.607Z,99.99
2022-10-21T04:01:34.726Z,99.99
2022-10-21T04:02:34.582Z,99.99
2022-10-21T04:03:34.314Z,99.99
2022-10-21T04:04:34.346Z,99.99
2022-10-21T04:05:34.600Z,99.99
2022-10-21T04:06:34.523Z,99.99
2022-10-21T04:07:34.514Z,99.99
2022-10-21T04:08:34.579Z,99.99
2022-10-21T04:09:34.486Z,99.99
2022-10-21T04:10:34.469Z,99.99
2022-10-21T04:11:34.204Z,99.99
2022-10-21T04:12:34.442Z,99.99
2022-10-21T04:13:34.174Z,99.99
2022-10-21T04:14:34.162Z,99.99
2022-10-21T04:15:34.415Z,99.99
2022-10-21T04:16:34.134Z,99.99
2022-10-21T04:17:34.374Z,99.99
2022-10-21T04:18:34.371Z,99.99
2022-10-21T04:19:34.356Z,99.99
2022-10-21T04:20:34.339Z,99.99
2022-10-21T04:21:34.376Z,99.99
2022-10-21T04:22:34.310Z,99.99
2022-10-21T04:23:34.299Z,99.99
2022-10-21T04:24:34.025Z,99.99
2022-10-21T04:25:34.273Z,99.99
2022-10-21T04:26:33.997Z,99.99
2022-10-21T04:27:33.989Z,99.99
2022-10-21T04:28:33.979Z,99.99
2022-10-21T04:29:34.969Z,99.99
2022-10-21T04:30:34.695Z,99.99
2022-10-21T04:31:34.690Z,99.99
2022-10-21T04:32:34.685Z,99.99
2022-10-21T04:33:34.659Z,99.99
2022-10-21T04:34:34.641Z,99.99
2022-10-21T04:35:34.630Z,99.99
2022-10-21T04:36:34.613Z,99.99
2022-10-21T04:37:34.907Z,99.99
2022-10-21T04:38:34.843Z,99.99
2022-10-21T04:39:34.847Z,99.99
2022-10-21T04:40:34.823Z,99.99
2022-10-21T04:41:34.549Z,99.99
2022-10-21T04:42:34.802Z,99.99
2022-10-21T04:43:34.535Z,99.99
2022-10-21T04:44:34.512Z,99.99
2022-10-21T04:45:35.246Z,99.99
2022-10-21T04:46:35.237Z,99.99
2022-10-21T04:47:35.368Z,99.99
2022-10-21T04:48:35.209Z,99.99
2022-10-21T04:49:34.944Z,99.99
2022-10-21T04:50:35.184Z,99.99
2022-10-21T04:51:35.498Z,99.99
2022-10-21T04:52:35.280Z,99.99
2022-10-21T04:53:35.191Z,99.99
2022-10-21T04:54:35.131Z,99.99
2022-10-21T04:55:34.860Z,99.99
2022-10-21T04:56:34.848Z,99.99
2022-10-21T04:57:34.832Z,99.99
2022-10-21T04:58:35.100Z,99.99
2022-10-21T04:59:35.064Z,99.99
2022-10-21T05:00:34.951Z,99.99
2022-10-21T05:01:35.238Z,99.99
2022-10-21T05:02:34.779Z,99.99
2022-10-21T05:03:34.760Z,99.99
2022-10-21T05:04:34.999Z,99.99
2022-10-21T05:05:34.994Z,99.99
2022-10-21T05:06:34.978Z,99.99
2022-10-21T05:07:34.967Z,99.99
2022-10-21T05:08:35.066Z,99.99
2022-10-21T05:09:34.992Z,99.99
2022-10-21T05:10:34.927Z,99.99
2022-10-21T05:11:34.906Z,99.99
2022-10-21T05:13:34.881Z,99.99
2022-10-21T05:14:34.616Z,99.99
2022-10-21T05:15:34.848Z,99.99
2022-10-21T05:16:34.839Z,99.99
2022-10-21T05:17:34.576Z,99.99
2022-10-21T05:18:34.556Z,99.99
2022-10-21T05:19:34.797Z,99.99
2022-10-21T05:20:34.535Z,99.99
2022-10-21T05:21:34.884Z,99.99
2022-10-21T05:22:34.761Z,99.99
2022-10-21T05:23:34.491Z,99.99
2022-10-21T05:24:34.491Z,99.99
2022-10-21T05:25:36.955Z,99.99
2022-10-21T05:26:34.454Z,99.99
2022-10-21T05:27:34.433Z,99.99
2022-10-21T05:28:34.677Z,99.99
2022-10-21T05:29:34.663Z,99.99
2022-10-21T05:30:34.515Z,99.99
2022-10-21T05:31:34.641Z,99.99
2022-10-21T05:32:34.368Z,99.99
2022-10-21T05:33:34.681Z,99.99
2022-10-21T05:34:34.606Z,99.99
2022-10-21T05:35:34.327Z,99.99
2022-10-21T05:36:34.568Z,99.99
2022-10-21T05:37:34.559Z,99.99
2022-10-21T05:38:34.284Z,99.99
2022-10-21T05:39:34.428Z,99.99
2022-10-21T05:40:34.512Z,99.99
2022-10-21T05:41:34.555Z,99.99
2022-10-21T05:42:34.232Z,99.99
2022-10-21T05:43:34.532Z,99.99
2022-10-21T05:44:34.460Z,99.99
2022-10-21T05:45:34.194Z,99.99
2022-10-21T05:46:34.179Z,99.99
2022-10-21T05:47:34.169Z,99.99
2022-10-21T05:48:34.211Z,99.99
2022-10-21T05:49:34.402Z,99.99
2022-10-21T05:50:34.381Z,99.99
2022-10-21T05:51:34.116Z,99.99
2022-10-21T05:52:34.350Z,99.99
2022-10-21T05:53:34.343Z,99.99
2022-10-21T05:54:34.325Z,99.99
2022-10-21T05:55:34.058Z,99.99
2022-10-21T05:56:34.297Z,99.99
2022-10-21T05:57:34.333Z,99.99
2022-10-21T05:58:34.274Z,99.99
2022-10-21T05:59:34.003Z,99.99
2022-10-21T06:00:34.241Z,99.99
2022-10-21T06:01:34.443Z,99.99
2022-10-21T06:02:34.220Z,99.99
2022-10-21T06:03:34.204Z,99.99
2022-10-21T06:04:40.240Z,99.99
2022-10-21T06:05:34.179Z,99.99
2022-10-21T06:06:33.906Z,99.99
2022-10-21T06:07:33.898Z,99.99
2022-10-21T06:08:34.302Z,99.99
2022-10-21T06:09:33.866Z,99.99
2022-10-21T06:10:33.854Z,99.99
2022-10-21T06:11:34.100Z,99.99
2022-10-21T06:12:34.081Z,99.99
2022-10-21T06:13:34.118Z,99.99
2022-10-21T06:14:33.799Z,99.99
2022-10-21T06:15:34.047Z,99.99
2022-10-21T06:16:34.035Z,99.99
2022-10-21T06:17:34.021Z,99.99
2022-10-21T06:18:34.007Z,99.99
2022-10-21T06:19:33.994Z,99.99
2022-10-21T06:20:33.786Z,99.99
2022-10-21T06:21:33.709Z,99.99
2022-10-21T06:22:33.950Z,99.99
2022-10-21T06:23:33.934Z,99.99
2022-10-21T06:24:33.931Z,99.99
2022-10-21T06:25:33.906Z,99.99
2022-10-21T06:26:38.522Z,99.99
2022-10-21T06:27:33.882Z,99.99
2022-10-21T06:28:33.870Z,99.99
2022-10-21T06:29:33.900Z,99.99
2022-10-21T06:30:33.839Z,99.99
2022-10-21T06:31:33.827Z,99.99
2022-10-21T06:32:33.564Z,99.99
2022-10-21T06:33:33.544Z,99.99
2022-10-21T06:34:33.793Z,99.99
2022-10-21T06:35:33.779Z,99.99
2022-10-21T06:36:33.506Z,99.99
2022-10-21T06:37:33.513Z,99.99
2022-10-21T06:38:33.746Z,99.99
2022-10-21T06:39:33.719Z,99.99
2022-10-21T06:40:33.453Z,99.99
2022-10-21T06:41:33.436Z,99.99
2022-10-21T06:42:33.684Z,99.99
2022-10-21T06:43:33.410Z,99.99
2022-10-21T06:44:33.653Z,99.99
2022-10-21T06:45:33.695Z,99.99
2022-10-21T06:46:33.375Z,99.99
2022-10-21T06:47:33.613Z,99.99
2022-10-21T06:48:33.601Z,99.99
2022-10-21T06:49:33.333Z,99.99
2022-10-21T06:50:33.576Z,99.99
2022-10-21T06:51:33.559Z,99.99
2022-10-21T06:52:33.558Z,99.99
2022-10-21T06:53:38.050Z,99.99
2022-10-21T06:54:33.269Z,99.99
2022-10-21T06:55:33.513Z,99.99
2022-10-21T06:56:33.243Z,99.99
2022-10-21T06:57:33.229Z,99.99
2022-10-21T06:58:33.475Z,99.99
2022-10-21T06:59:33.455Z,99.99
2022-10-21T07:00:33.183Z,99.99
2022-10-21T07:02:06.102Z,99.99
2022-10-21T07:02:33.428Z,99.99
2022-10-21T07:03:33.150Z,99.99
2022-10-21T07:04:33.419Z,99.99
2022-10-21T07:05:33.378Z,99.99
2022-10-21T07:07:33.104Z,99.99
2022-10-21T07:08:57.753Z,99.99
2022-10-21T07:09:33.527Z,99.99
2022-10-21T07:10:33.322Z,99.99
2022-10-21T07:11:33.304Z,99.99
2022-10-21T07:12:33.036Z,99.99
2022-10-21T07:13:33.024Z,99.99
2022-10-21T07:14:33.264Z,99.99
2022-10-21T07:15:33.270Z,99.99
2022-10-21T07:16:33.246Z,99.99
2022-10-21T07:17:33.284Z,99.99
2022-10-21T07:18:33.212Z,99.99
2022-10-21T07:19:32.950Z,99.99
2022-10-21T07:20:33.188Z,99.99
2022-10-21T07:21:33.182Z,99.99
2022-10-21T07:22:33.164Z,99.99
2022-10-21T07:23:33.155Z,99.99
2022-10-21T07:24:32.884Z,99.99
2022-10-21T07:25:33.138Z,99.99
2022-10-21T07:26:33.118Z,99.99
2022-10-21T07:27:32.849Z,99.99
2022-10-21T07:28:33.089Z,99.99
2022-10-21T07:29:33.081Z,99.99
2022-10-21T07:30:33.068Z,99.99
2022-10-21T07:31:33.057Z,99.99
2022-10-21T07:32:33.040Z,99.99
2022-10-21T07:33:33.092Z,99.99
2022-10-21T07:34:33.034Z,99.99
2022-10-21T07:35:33.008Z,99.99
2022-10-21T07:36:32.993Z,99.99
2022-10-21T07:37:32.983Z,99.99
2022-10-21T07:38:32.972Z,99.99
2022-10-21T07:39:32.961Z,99.99
2022-10-21T07:40:32.949Z,99.99
2022-10-21T07:41:32.678Z,99.99
2022-10-21T07:42:32.918Z,99.99
2022-10-21T07:43:32.655Z,99.99
2022-10-21T07:44:32.898Z,99.99
2022-10-21T07:45:32.887Z,99.99
2022-10-21T07:46:33.293Z,99.99
2022-10-21T07:47:33.012Z,99.99
2022-10-21T07:48:33.256Z,99.99
2022-10-21T07:49:33.293Z,99.99
2022-10-21T07:50:33.232Z,99.99
2022-10-21T07:51:33.667Z,99.99
2022-10-21T07:52:38.491Z,99.99
2022-10-21T07:53:32.945Z,99.99
2022-10-21T07:54:33.180Z,99.99
2022-10-21T07:55:32.912Z,99.99
2022-10-21T07:56:32.905Z,99.99
2022-10-21T07:57:33.151Z,99.99
2022-10-21T07:58:33.135Z,99.99
2022-10-21T07:59:32.867Z,99.99
2022-10-21T08:00:33.109Z,99.99
2022-10-21T08:01:33.366Z,99.99
2022-10-21T08:02:32.832Z,99.99
2022-10-21T08:03:32.824Z,99.99
2022-10-21T08:04:33.064Z,99.99
2022-10-21T08:05:33.101Z,99.99
2022-10-21T08:06:33.043Z,99.99
2022-10-21T08:07:33.035Z,99.99
2022-10-21T08:08:33.735Z,99.99
2022-10-21T08:09:33.828Z,99.99
2022-10-21T08:10:33.689Z,99.99
2022-10-21T08:11:33.548Z,99.99
2022-10-21T08:12:33.799Z,99.99
2022-10-21T08:13:33.785Z,99.99
2022-10-21T08:14:33.784Z,99.99
2022-10-21T08:15:33.760Z,99.99
2022-10-21T08:16:33.754Z,99.99
2022-10-21T08:17:33.746Z,99.99
2022-10-21T08:18:33.734Z,99.99
2022-10-21T08:19:33.713Z,99.99
2022-10-21T08:20:33.702Z,99.99
2022-10-21T08:21:33.739Z,99.99
2022-10-21T08:22:33.682Z,99.99
2022-10-21T08:23:33.668Z,99.99
2022-10-21T08:24:33.657Z,99.99
2022-10-21T08:25:33.395Z,99.99
2022-10-21T08:26:33.635Z,99.99
2022-10-21T08:27:33.622Z,99.99
2022-10-21T08:28:33.613Z,99.99
2022-10-21T08:29:36.447Z,99.99
2022-10-21T08:30:33.965Z,99.99
2022-10-21T08:31:33.937Z,99.99
2022-10-21T08:32:34.182Z,99.99
2022-10-21T08:33:33.912Z,99.99
2022-10-21T08:34:34.163Z,99.99
2022-10-21T08:35:34.148Z,99.99
2022-10-21T08:36:33.879Z,99.99
2022-10-21T08:37:34.173Z,99.99
2022-10-21T08:38:33.865Z,99.99
2022-10-21T08:39:33.855Z,99.99
2022-10-21T08:40:33.843Z,99.99
2022-10-21T08:41:34.081Z,99.99
2022-10-21T08:42:34.072Z,99.99
2022-10-21T08:43:33.805Z,99.99
2022-10-21T08:44:34.052Z,99.99
2022-10-21T08:45:34.042Z,99.99
2022-10-21T08:46:34.033Z,99.99
2022-10-21T08:47:33.762Z,99.99
2022-10-21T08:48:33.750Z,99.99
2022-10-21T08:49:34.004Z,99.99
2022-10-21T08:50:33.730Z,99.99
2022-10-21T08:51:33.976Z,99.99
2022-10-21T08:52:33.854Z,99.99
2022-10-21T08:53:34.154Z,99.99
2022-10-21T08:54:34.089Z,99.99
2022-10-21T08:55:34.075Z,99.99
2022-10-21T08:56:34.074Z,99.99
2022-10-21T08:57:33.804Z,99.99
2022-10-21T08:58:33.795Z,99.99
2022-10-21T08:59:33.786Z,99.99
2022-10-21T09:00:34.028Z,99.99
2022-10-21T09:01:34.014Z,99.99
2022-10-21T09:02:34.075Z,99.99
2022-10-21T09:03:33.994Z,99.99
2022-10-21T09:04:33.983Z,99.99
2022-10-21T09:05:33.725Z,99.99
2022-10-21T09:06:33.962Z,99.99
2022-10-21T09:07:33.957Z,99.99
2022-10-21T09:08:34.085Z,99.99
2022-10-21T09:09:33.986Z,99.99
2022-10-21T09:10:33.676Z,99.99
2022-10-21T09:11:33.914Z,99.99
2022-10-21T09:12:33.649Z,99.99
2022-10-21T09:13:33.638Z,99.99
2022-10-21T09:14:34.256Z,99.99
2022-10-21T09:15:34.229Z,99.99
2022-10-21T09:16:34.213Z,99.99
2022-10-21T09:17:34.208Z,99.99
2022-10-21T09:18:33.942Z,99.99
2022-10-21T09:19:34.191Z,99.99
2022-10-21T09:20:34.181Z,99.99
2022-10-21T09:21:34.172Z,99.99
2022-10-21T09:22:38.501Z,99.99
2022-10-21T09:23:34.914Z,99.99
2022-10-21T09:24:34.166Z,99.99
2022-10-21T09:25:34.179Z,99.99
2022-10-21T09:26:33.870Z,99.99
2022-10-21T09:27:57.495Z,99.99
2022-10-21T09:28:33.851Z,99.99
2022-10-21T09:29:34.102Z,99.99
2022-10-21T09:30:34.090Z,99.99
2022-10-21T09:31:33.833Z,99.99
2022-10-21T09:32:34.074Z,99.99
2022-10-21T09:33:34.063Z,99.99
2022-10-21T09:34:33.799Z,99.99
2022-10-21T09:35:34.054Z,99.99
2022-10-21T09:36:34.402Z,99.99
2022-10-21T09:37:38.096Z,99.99
2022-10-21T09:38:34.651Z,99.99
2022-10-21T09:39:34.635Z,99.99
2022-10-21T09:40:34.633Z,99.99
2022-10-21T09:41:34.668Z,99.99
2022-10-21T09:42:51.360Z,99.99
2022-10-21T09:43:34.602Z,99.99
2022-10-21T09:44:34.590Z,99.99
2022-10-21T09:45:34.596Z,99.99
2022-10-21T09:46:34.316Z,99.99
2022-10-21T09:47:34.312Z,99.99
2022-10-21T09:49:06.848Z,99.99
2022-10-21T09:50:20.456Z,99.99
2022-10-21T09:51:20.253Z,99.99
2022-10-21T09:52:19.985Z,99.99
2022-10-21T09:53:25.598Z,99.99
2022-10-21T09:54:20.223Z,99.99
2022-10-21T09:55:20.216Z,99.99
2022-10-21T09:56:19.949Z,99.99
2022-10-21T09:57:20.250Z,99.99
2022-10-21T09:58:20.187Z,99.99
2022-10-21T09:59:19.924Z,99.99
2022-10-21T10:00:20.171Z,99.99
2022-10-21T10:01:20.163Z,99.99
2022-10-21T10:02:20.048Z,99.99
2022-10-21T10:03:19.893Z,99.99
2022-10-21T10:04:20.142Z,99.99
2022-10-21T10:05:20.133Z,99.99
2022-10-21T10:06:19.877Z,99.99
2022-10-21T10:07:20.113Z,99.99
2022-10-21T10:08:20.103Z,99.99
2022-10-21T10:09:19.850Z,99.99
2022-10-21T10:10:19.830Z,99.99
2022-10-21T10:11:19.819Z,99.99
2022-10-21T10:12:20.065Z,99.99
2022-10-21T10:13:20.126Z,99.99
2022-10-21T10:14:19.795Z,99.99
2022-10-21T10:15:20.042Z,99.99
2022-10-21T10:16:19.775Z,99.99
2022-10-21T10:17:19.769Z,99.99
2022-10-21T10:18:19.767Z,99.99
2022-10-21T10:19:19.756Z,99.99
2022-10-21T10:20:20.009Z,99.99
2022-10-21T10:21:19.739Z,99.99
2022-10-21T10:22:19.984Z,99.99
2022-10-21T10:23:19.975Z,99.99
2022-10-21T10:24:19.968Z,99.99
2022-10-21T10:25:19.700Z,99.99
2022-10-21T10:26:19.694Z,99.99
2022-10-21T10:27:19.689Z,99.99
2022-10-21T10:28:19.677Z,99.99
2022-10-21T10:29:20.193Z,99.99
2022-10-21T10:30:19.656Z,99.99
2022-10-21T10:31:19.902Z,99.99
2022-10-21T10:32:19.896Z,99.99
2022-10-21T10:33:19.887Z,99.99
2022-10-21T10:34:19.884Z,99.99
2022-10-21T10:35:19.876Z,99.99
2022-10-21T10:36:19.601Z,99.99
2022-10-21T10:37:19.605Z,99.99
2022-10-21T10:38:19.841Z,99.99
2022-10-21T10:39:19.579Z,99.99
2022-10-21T10:40:19.569Z,99.99
2022-10-21T10:41:19.559Z,99.99
2022-10-21T10:42:19.554Z,99.99
2022-10-21T10:43:19.796Z,99.99
2022-10-21T10:44:19.789Z,99.99
2022-10-21T10:45:20.022Z,99.99
2022-10-21T10:46:19.519Z,99.99
2022-10-21T10:47:19.508Z,99.99
2022-10-21T10:48:19.763Z,99.99
2022-10-21T10:49:19.748Z,99.99
2022-10-21T10:50:19.745Z,99.99
2022-10-21T10:51:19.728Z,99.99
2022-10-21T10:52:19.725Z,99.99
2022-10-21T10:53:19.713Z,99.99
2022-10-21T10:54:19.706Z,99.99
2022-10-21T10:55:19.703Z,99.99
2022-10-21T10:56:19.448Z,99.99
2022-10-21T10:57:19.688Z,99.99
2022-10-21T10:58:24.165Z,99.99
2022-10-21T10:59:19.442Z,99.99
2022-10-21T11:00:19.666Z,99.99
2022-10-21T11:01:20.001Z,99.99
2022-10-21T11:02:19.643Z,99.99
2022-10-21T11:03:21.805Z,99.99
2022-10-21T11:04:19.627Z,99.99
2022-10-21T11:05:19.623Z,99.99
2022-10-21T11:06:19.616Z,99.99
2022-10-21T11:07:19.610Z,99.99
2022-10-21T11:08:19.598Z,99.99
2022-10-21T11:09:21.690Z,99.99
2022-10-21T11:10:19.321Z,99.99
2022-10-21T11:11:19.329Z,99.99
2022-10-21T11:12:19.576Z,99.99
2022-10-21T11:13:19.297Z,99.99
2022-10-21T11:14:24.224Z,99.99
2022-10-21T11:15:19.531Z,99.99
2022-10-21T11:16:19.525Z,99.99
2022-10-21T11:17:19.757Z,99.99
2022-10-21T11:18:27.635Z,99.99
2022-10-21T11:19:19.243Z,99.99
2022-10-21T11:20:19.495Z,99.99
2022-10-21T11:21:19.228Z,99.99
2022-10-21T11:22:19.475Z,99.99
2022-10-21T11:23:19.476Z,99.99
2022-10-21T11:24:19.460Z,99.99
2022-10-21T11:25:19.450Z,99.99
2022-10-21T11:26:19.446Z,99.99
2022-10-21T11:27:21.724Z,99.99
2022-10-21T11:28:19.174Z,99.99
2022-10-21T11:29:19.425Z,99.99
2022-10-21T11:30:19.412Z,99.99
2022-10-21T11:31:19.403Z,99.99
2022-10-21T11:32:19.394Z,99.99
2022-10-21T11:33:19.636Z,99.99
2022-10-21T11:34:19.378Z,99.99
2022-10-21T11:35:19.114Z,99.99
2022-10-21T11:36:19.108Z,99.99
2022-10-21T11:37:19.351Z,99.99
2022-10-21T11:38:19.347Z,99.99
2022-10-21T11:39:23.725Z,99.99
2022-10-21T11:40:19.327Z,99.99
2022-10-21T11:41:19.867Z,99.99
2022-10-21T11:42:19.053Z,99.99
2022-10-21T11:43:19.324Z,99.99
2022-10-21T11:44:19.037Z,99.99
2022-10-21T11:45:19.296Z,99.99
2022-10-21T11:46:19.024Z,99.99
2022-10-21T11:47:19.016Z,99.99
2022-10-21T11:48:19.010Z,99.99
2022-10-21T11:49:19.495Z,99.99
2022-10-21T11:51:19.110Z,99.99
2022-10-21T11:52:19.229Z,99.99
2022-10-21T11:53:19.230Z,99.99
2022-10-21T11:54:19.216Z,99.99
2022-10-21T11:55:19.208Z,99.99
2022-10-21T11:56:19.195Z,99.99
2022-10-21T11:57:18.941Z,99.99
2022-10-21T11:58:19.178Z,99.99
2022-10-21T11:59:19.103Z,99.99
2022-10-21T12:00:19.172Z,99.99
2022-10-21T12:01:18.901Z,99.99
2022-10-21T12:02:19.107Z,99.99
2022-10-21T12:03:18.988Z,99.99
2022-10-21T12:04:18.976Z,99.99
2022-10-21T12:05:19.456Z,99.99
2022-10-21T12:06:19.212Z,99.99
2022-10-21T12:07:18.956Z,99.99
2022-10-21T12:08:19.067Z,99.99
2022-10-21T12:09:18.933Z,99.99
2022-10-21T12:10:19.174Z,99.99
2022-10-21T12:11:19.175Z,99.99
2022-10-21T12:12:18.907Z,99.99
2022-10-21T12:13:19.152Z,99.99
2022-10-21T12:14:19.144Z,99.99
2022-10-21T12:15:19.140Z,99.99
2022-10-21T12:16:18.875Z,99.99
2022-10-21T12:17:19.124Z,99.99
2022-10-21T12:18:19.121Z,99.99
2022-10-21T12:19:19.104Z,99.99
2022-10-21T12:20:25.408Z,99.99
2022-10-21T12:21:19.208Z,99.99
2022-10-21T12:22:18.822Z,99.99
2022-10-21T12:23:19.066Z,99.99
2022-10-21T12:24:19.061Z,99.99
2022-10-21T12:25:19.050Z,99.99
2022-10-21T12:26:19.042Z,99.99
2022-10-21T12:27:19.038Z,99.99
2022-10-21T12:28:19.028Z,99.99
2022-10-21T12:29:19.016Z,99.99
2022-10-21T12:30:22.026Z,99.99
2022-10-21T12:31:18.745Z,99.99
2022-10-21T12:32:18.992Z,99.99
2022-10-21T12:33:18.987Z,99.99
2022-10-21T12:34:18.973Z,99.99
2022-10-21T12:35:18.963Z,99.99
2022-10-21T12:36:18.826Z,99.99
2022-10-21T12:37:19.064Z,99.99
2022-10-21T12:38:18.952Z,99.99
2022-10-21T12:39:18.950Z,99.99
2022-10-21T12:40:18.926Z,99.99
2022-10-21T12:41:18.910Z,99.99
2022-10-21T12:42:18.908Z,99.99
2022-10-21T12:43:18.638Z,99.99
2022-10-21T12:44:18.886Z,99.99
2022-10-21T12:45:18.622Z,99.99
2022-10-21T12:46:18.615Z,99.99
2022-10-21T12:47:19.396Z,99.99
2022-10-21T12:48:19.641Z,99.99
2022-10-21T12:49:19.381Z,99.99
2022-10-21T12:50:19.623Z,99.99
2022-10-21T12:51:19.357Z,99.99
2022-10-21T12:52:19.634Z,99.99
2022-10-21T12:53:19.629Z,99.99
2022-10-21T12:54:19.333Z,99.99
2022-10-21T12:55:19.580Z,99.99
2022-10-21T12:56:19.322Z,99.99
2022-10-21T12:57:19.559Z,99.99
2022-10-21T12:58:19.557Z,99.99
2022-10-21T12:59:19.543Z,99.99
2022-10-21T13:00:19.665Z,99.99
2022-10-21T13:01:19.360Z,99.99
2022-10-21T13:02:19.261Z,99.99
2022-10-21T13:03:19.250Z,99.99
2022-10-21T13:04:19.243Z,99.99
2022-10-21T13:05:19.232Z,99.99
2022-10-21T13:06:19.236Z,99.99
2022-10-21T13:07:19.466Z,99.99
2022-10-21T13:08:19.232Z,99.99
2022-10-21T13:09:19.518Z,99.99
2022-10-21T13:10:19.443Z,99.99
2022-10-21T13:11:19.439Z,99.99
2022-10-21T13:12:19.164Z,99.99
2022-10-21T13:13:19.158Z,99.99
2022-10-21T13:14:19.401Z,99.99